Strona główna
METAR-TAF:

METAR-TAF

Lotnisko :

Kowno, Litwa

Port lotniczy Kowno

Szerokość geograficzna: 54-54N, Długość geograficzna: 023-55-12E, wysokość: 77 m

Aktualna obserwacja pogody

Raport powstał 8 minut temu, godzina 19:50 UTC
Wiatr 4 kt od północ, zmienny między północno-północny zachód i północno-północny wschód
Temperatura -17°C
Wilgotność 77%
Ciśnienie 1031 hPa
Widzialność: 8000 m

METAR: EYKA 251950Z 36004KT 330V030 8000 NSC M17/M20 Q1031 R08/490195

czas: 21:58 (19:58 UTC)

Prognoza

Raport powstał 2 godziny i 57 minut temu, godzina 17:01 UTC
Prognoza ważna od 25 godzina 18 UTC do 26 godzina 18 UTC
Wiatr 5 kt z kierunków zmiennych
Widzialność: 9000 m
Rozproszone chmury na wysokości 1500 ft
Przejściowo
od 26 godzina 03 UTC do 26 godzina 09 UTC
Widzialność: 4000 m
Przerywane chmury na wysokości 500 ft
śnieg, zamglenie
Przejściowo
od 26 godzina 09 UTC do 26 godzina 12 UTC
Przerywane chmury na wysokości 600 ft

TAF: EYKA 251701Z 2518/2618 VRB05KT 9000 SCT015 TEMPO 2603/2609 4000 SN BR BKN005 TEMPO 2609/2612 BKN006

Obserwacja i prognoza pogody dla ponad 4000 lotnisk (raport METAR i TAF).

Dostępne stacje oznaczono żółtymi i czerwonymi punktami na mapie.

Najedź kursorem aby zobaczyć nazwę stacji.

Kliknij aby zobaczyć obserwacje i prognozy pogody.

Aby zmienić mapę: kliknij na zielony przycisk z czarnym krzyżykiem, aby powiększyć; na zielony przycisk z myślnikiem, aby pomniejszyć; na zielone strzałki, aby przejść do map sąsiednich.


METAR-TAF: